Time;durP1;ratioP1;P1;durP2;ratioP2;P2;SDS_P1;SDS_P2;PMS_P1;PMS_P2;Temp;Humidity;BMP_temperature;BMP_pressure;BME280_temperature;BME280_humidity;BME280_pressure;Samples;Min_cycle;Max_cycle;Signal;HPM_P1;HPM_P2
2021/06/15 00:00:17;;;;;;;7.47;4.05;;;;;;;9.42;67.77;97602.75;1814731;77;27355;-82
2021/06/15 00:02:46;;;;;;;7.45;4.58;;;;;;;9.38;68.01;97594.78;1845955;76;25873;-83
2021/06/15 00:05:15;;;;;;;7.47;3.65;;;;;;;9.43;68.06;97597.69;1846006;76;25705;-80
2021/06/15 00:07:41;;;;;;;8.20;3.80;;;;;;;9.44;68.12;97591.27;1846158;76;25740;-82
2021/06/15 00:10:16;;;;;;;7.78;3.40;;;;;;;9.44;68.03;97595.31;1846151;77;25765;-82
2021/06/15 00:12:43;;;;;;;6.95;3.58;;;;;;;9.43;68.09;97593.64;1854510;76;28212;-82
2021/06/15 00:15:11;;;;;;;9.25;4.15;;;;;;;9.42;68.12;97590.63;1869260;76;25468;-82
2021/06/15 00:17:39;;;;;;;6.22;3.90;;;;;;;9.43;68.09;97590.95;1871752;75;25669;-81
2021/06/15 00:20:08;;;;;;;5.17;3.20;;;;;;;9.42;68.01;97591.98;1845743;77;26519;-82
2021/06/15 00:22:34;;;;;;;8.38;3.55;;;;;;;9.38;67.96;97582.66;1879566;76;25725;-81
2021/06/15 00:25:01;;;;;;;9.55;3.87;;;;;;;9.37;68.02;97576.95;1856004;76;27344;-81
2021/06/15 00:27:30;;;;;;;9.13;3.72;;;;;;;9.36;68.12;97583.36;1850111;76;25721;-82
2021/06/15 00:29:57;;;;;;;5.50;3.60;;;;;;;9.28;68.14;97592.96;1857754;76;25852;-80
2021/06/15 00:32:24;;;;;;;7.37;4.10;;;;;;;9.22;68.23;97586.49;1862387;76;25760;-82
2021/06/15 00:34:50;;;;;;;4.15;3.30;;;;;;;9.21;68.30;97588.03;1855530;76;25759;-82
2021/06/15 00:37:17;;;;;;;6.33;3.50;;;;;;;9.19;68.36;97582.01;1843761;76;28218;-81
2021/06/15 00:39:43;;;;;;;8.68;3.67;;;;;;;9.14;68.34;97585.83;1845979;77;25202;-82
2021/06/15 00:42:10;;;;;;;5.12;3.52;;;;;;;9.11;68.33;97588.91;1831592;77;25677;-82
2021/06/15 00:44:37;;;;;;;4.70;3.35;;;;;;;9.07;68.37;97587.63;1853449;76;26258;-79
2021/06/15 00:47:04;;;;;;;9.03;3.95;;;;;;;8.98;68.44;97589.14;1876195;76;25674;-81
2021/06/15 00:49:34;;;;;;;7.08;3.75;;;;;;;8.97;68.53;97598.24;1849356;76;27371;-81
2021/06/15 00:52:03;;;;;;;7.85;3.80;;;;;;;8.96;68.59;97587.16;1846177;77;25732;-80
2021/06/15 00:54:30;;;;;;;6.55;3.70;;;;;;;8.95;68.64;97587.34;1846152;76;25745;-81
2021/06/15 00:56:57;;;;;;;7.75;3.62;;;;;;;8.92;68.69;97582.38;1861946;75;25709;-81
2021/06/15 00:59:23;;;;;;;5.28;3.33;;;;;;;8.91;68.68;97582.05;1856836;76;25767;-82
2021/06/15 01:01:50;;;;;;;10.23;3.72;;;;;;;8.88;68.58;97579.75;1846090;77;27330;-82
2021/06/15 01:04:18;;;;;;;6.87;3.37;;;;;;;8.84;68.58;97588.72;1845954;77;25902;-81
2021/06/15 01:07:04;;;;;;;8.40;3.55;;;;;;;8.80;68.71;97592.02;1836988;77;25811;-80
2021/06/15 01:09:41;;;;;;;5.25;3.40;;;;;;;8.64;68.89;97581.85;1871242;76;25672;-81
2021/06/15 01:12:56;;;;;;;7.83;3.50;;;;;;;8.50;69.19;97577.89;1856666;76;25728;-81
2021/06/15 01:15:39;;;;;;;4.97;3.72;;;;;;;8.43;69.43;97578.36;1794824;79;28171;-79
2021/06/15 01:18:16;;;;;;;5.90;3.35;;;;;;;8.49;69.62;97576.23;1842113;77;25894;-81
2021/06/15 01:20:47;;;;;;;7.70;3.67;;;;;;;8.52;69.58;97571.81;1846103;77;25764;-81
2021/06/15 01:23:43;;;;;;;4.12;3.40;;;;;;;8.53;69.52;97582.89;1821761;76;25697;-82
2021/06/15 01:26:55;;;;;;;5.78;3.20;;;;;;;8.55;69.51;97588.41;1782354;79;25690;-81
2021/06/15 01:29:35;;;;;;;6.87;3.25;;;;;;;8.57;69.60;97588.22;1791450;79;27373;-81
2021/06/15 01:32:22;;;;;;;5.85;3.20;;;;;;;8.42;69.66;97582.91;1868122;76;25859;-81
2021/06/15 01:34:49;;;;;;;6.62;4.00;;;;;;;8.44;69.64;97578.69;1883414;76;26383;-82
2021/06/15 01:37:42;;;;;;;6.92;4.05;;;;;;;8.45;69.52;97576.31;1874309;75;25790;-82
2021/06/15 01:40:18;;;;;;;;;;;;;;;8.42;69.56;97570.80;1862122;76;25687;-82
2021/06/15 01:42:52;;;;;;;7.33;3.42;;;;;;;8.38;69.79;97567.34;1827904;76;27297;-82
2021/06/15 01:45:32;;;;;;;7.05;3.33;;;;;;;8.32;69.76;97564.09;1845798;77;25838;-82
2021/06/15 01:48:36;;;;;;;6.78;3.30;;;;;;;8.30;69.86;97566.42;1849223;76;25254;-82
2021/06/15 01:51:05;;;;;;;4.92;3.60;;;;;;;8.25;69.85;97564.81;1799879;79;26415;-82
2021/06/15 01:53:36;;;;;;;9.58;3.55;;;;;;;8.27;69.95;97563.28;1784561;79;25797;-82
2021/06/15 01:56:05;;;;;;;8.35;3.77;;;;;;;8.17;69.74;97562.27;1870717;76;27429;-81
2021/06/15 01:58:36;;;;;;;6.25;3.00;;;;;;;8.13;69.88;97559.63;1847267;76;25671;-81
2021/06/15 02:01:06;;;;;;;5.45;3.77;;;;;;;8.10;69.91;97562.70;1846129;77;25703;-81
2021/06/15 02:03:33;;;;;;;7.35;3.50;;;;;;;7.99;69.96;97561.86;1878184;75;25750;-80
2021/06/15 02:06:02;;;;;;;6.22;3.60;;;;;;;7.99;70.14;97561.86;1856726;76;25783;-80
2021/06/15 02:08:35;;;;;;;4.78;3.20;;;;;;;8.00;70.19;97562.19;1869277;76;27423;-81
2021/06/15 02:11:03;;;;;;;4.40;3.00;;;;;;;7.98;70.20;97556.16;1846044;76;25660;-79
2021/06/15 02:13:33;;;;;;;7.05;3.00;;;;;;;7.93;70.22;97541.97;1845976;77;25740;-81
2021/06/15 02:16:02;;;;;;;6.37;3.15;;;;;;;7.94;70.24;97545.49;1846149;77;25795;-80
2021/06/15 02:18:31;;;;;;;8.03;3.42;;;;;;;7.96;70.31;97548.83;1846551;76;25351;-82
2021/06/15 02:21:00;;;;;;;5.17;3.50;;;;;;;7.93;70.30;97546.52;1871139;76;27272;-81
2021/06/15 02:23:27;;;;;;;8.63;3.52;;;;;;;7.86;70.38;97542.91;1845970;77;25664;-80
2021/06/15 02:26:02;;;;;;;5.00;3.27;;;;;;;7.85;70.49;97539.90;1846051;77;25748;-82
2021/06/15 02:28:28;;;;;;;7.03;3.87;;;;;;;7.87;70.55;97534.66;1842291;77;26297;-81
2021/06/15 02:30:59;;;;;;;6.08;3.85;;;;;;;7.84;70.56;97544.98;1845575;77;25690;-81
2021/06/15 02:33:32;;;;;;;10.40;4.20;;;;;;;7.85;70.66;97543.42;1846092;76;27618;-81
2021/06/15 02:36:03;;;;;;;7.72;3.67;;;;;;;7.85;70.71;97546.62;1845718;77;26574;-81
2021/06/15 02:38:38;;;;;;;8.63;4.40;;;;;;;7.78;70.73;97543.04;1846101;77;25752;-82
2021/06/15 02:41:09;;;;;;;11.28;4.08;;;;;;;7.74;70.88;97541.74;1862284;76;26319;-81
2021/06/15 02:43:37;;;;;;;7.75;3.70;;;;;;;7.75;71.00;97541.56;1845431;76;25747;-81
2021/06/15 02:46:08;;;;;;;10.32;3.50;;;;;;;7.80;71.00;97549.06;1845977;76;28158;-82
2021/06/15 02:48:38;;;;;;;8.38;3.20;;;;;;;7.81;70.92;97549.38;1845953;77;25716;-81
2021/06/15 02:51:06;;;;;;;8.45;3.37;;;;;;;7.81;70.79;97548.05;1873124;76;25643;-81
2021/06/15 02:53:50;;;;;;;9.28;3.98;;;;;;;7.81;70.81;97542.16;1845940;77;26458;-79
2021/06/15 02:56:21;;;;;;;7.00;3.60;;;;;;;7.82;70.78;97542.98;1800676;79;25914;-81
2021/06/15 02:58:48;;;;;;;5.22;3.67;;;;;;;7.82;70.75;97548.36;1864544;76;27501;-81
2021/06/15 03:01:15;;;;;;;8.20;3.27;;;;;;;7.82;70.84;97542.98;1845753;76;25832;-81
2021/06/15 03:03:42;;;;;;;4.95;3.67;;;;;;;7.82;70.82;97539.80;1862683;76;25740;-81
2021/06/15 03:06:09;;;;;;;5.50;3.47;;;;;;;7.82;70.87;97538.95;1855682;76;26448;-81
2021/06/15 03:08:36;;;;;;;5.47;3.58;;;;;;;7.78;70.88;97532.29;1846079;76;25673;-82
2021/06/15 03:11:06;;;;;;;8.03;3.60;;;;;;;7.79;70.82;97532.61;1846090;77;26984;-82
2021/06/15 03:13:50;;;;;;;7.92;3.50;;;;;;;7.79;70.89;97532.11;1845956;76;26007;-81
2021/06/15 03:16:22;;;;;;;4.90;3.67;;;;;;;7.79;71.01;97534.79;1845717;77;25711;-81
2021/06/15 03:19:23;;;;;;;7.60;4.10;;;;;;;7.66;71.16;97533.81;1845917;77;26501;-80
2021/06/15 03:22:10;;;;;;;7.83;3.35;;;;;;;7.59;71.33;97540.47;1838629;76;25744;-81
2021/06/15 03:24:49;;;;;;;12.75;3.87;;;;;;;7.64;71.58;97545.25;1863492;75;27355;-82
2021/06/15 03:27:19;;;;;;;7.37;3.95;;;;;;;7.59;71.72;97545.33;1851805;76;25766;-82
2021/06/15 03:29:48;;;;;;;8.98;3.35;;;;;;;7.55;71.80;97543.20;1845647;77;25758;-81
2021/06/15 03:32:17;;;;;;;5.60;3.40;;;;;;;7.58;71.89;97546.34;1846081;77;26387;-82
2021/06/15 03:34:48;;;;;;;5.28;3.65;;;;;;;7.63;71.89;97545.77;1846229;76;25704;-81
2021/06/15 03:37:19;;;;;;;5.22;3.72;;;;;;;7.68;71.89;97553.27;1846786;76;27362;-82
2021/06/15 03:39:47;;;;;;;7.75;4.05;;;;;;;7.66;71.80;97551.27;1868831;76;25670;-82
2021/06/15 03:42:24;;;;;;;6.65;3.95;;;;;;;7.70;71.83;97545.34;1846006;76;25807;-82
2021/06/15 03:45:07;;;;;;;9.05;4.35;;;;;;;7.74;71.82;97543.09;1845874;77;26452;-79
2021/06/15 03:47:38;;;;;;;7.90;4.03;;;;;;;7.77;71.83;97544.89;1862165;76;25717;-81
2021/06/15 03:50:07;;;;;;;11.28;5.12;;;;;;;7.80;71.86;97547.20;1845980;76;27341;-78
2021/06/15 03:52:39;;;;;;;9.93;4.58;;;;;;;7.84;71.93;97546.33;1872761;76;25711;-81
2021/06/15 03:55:10;;;;;;;9.63;4.92;;;;;;;7.86;71.96;97539.71;1845879;77;26368;-78
2021/06/15 03:57:43;;;;;;;12.80;5.60;;;;;;;7.91;72.01;97539.15;1846088;76;25740;-78
2021/06/15 04:00:18;;;;;;;11.78;5.25;;;;;;;7.95;72.13;97541.28;1846157;77;25720;-79
2021/06/15 04:02:48;;;;;;;7.95;4.55;;;;;;;8.01;72.19;97541.00;1844922;76;28258;-79
2021/06/15 04:05:16;;;;;;;12.75;4.90;;;;;;;8.04;72.27;97535.25;1846067;77;25669;-79
2021/06/15 04:07:45;;;;;;;10.85;4.90;;;;;;;8.09;72.36;97534.14;1846182;76;25640;-79
2021/06/15 04:10:14;;;;;;;12.45;4.60;;;;;;;8.15;72.40;97533.39;1815176;77;26476;-79
2021/06/15 04:12:42;;;;;;;9.98;5.17;;;;;;;8.22;72.43;97531.58;1846020;77;25619;-78
2021/06/15 04:15:10;;;;;;;11.65;5.67;;;;;;;8.29;72.41;97529.80;1850415;76;27357;-79
2021/06/15 04:17:42;;;;;;;12.28;5.12;;;;;;;8.35;72.45;97528.72;1845928;76;25468;-79
2021/06/15 04:20:13;;;;;;;11.50;4.97;;;;;;;8.42;72.47;97535.00;1846330;76;25719;-81
2021/06/15 04:22:49;;;;;;;9.00;4.50;;;;;;;8.47;72.45;97536.58;1861429;76;26555;-79
2021/06/15 04:25:24;;;;;;;12.03;5.20;;;;;;;8.52;72.53;97540.36;1846041;76;25696;-79
2021/06/15 04:27:51;;;;;;;6.65;4.60;;;;;;;8.57;72.47;97539.78;1845326;76;28422;-78
2021/06/15 04:30:19;;;;;;;9.38;5.10;;;;;;;8.63;72.53;97536.30;1860038;76;25752;-81
2021/06/15 04:32:56;;;;;;;10.88;4.95;;;;;;;8.68;72.57;97538.41;1859394;75;25744;-79
2021/06/15 04:35:28;;;;;;;9.68;4.72;;;;;;;8.74;72.57;97541.65;1846160;77;25675;-78
2021/06/15 04:38:00;;;;;;;11.38;5.42;;;;;;;8.79;72.60;97548.13;1854637;76;25726;-78
2021/06/15 04:40:32;;;;;;;;;;;;;;;8.85;72.64;97551.36;1835232;77;27422;-79
2021/06/15 04:43:13;;;;;;;9.45;4.35;;;;;;;8.92;72.91;97561.67;1854692;76;25793;-82
2021/06/15 04:45:44;;;;;;;22.17;6.37;;;;;;;8.96;72.87;97565.61;1840853;77;25595;-79
2021/06/15 04:48:22;;;;;;;17.80;5.58;;;;;;;9.04;72.93;97561.95;1824087;77;25750;-79
2021/06/15 04:50:49;;;;;;;15.55;5.30;;;;;;;9.14;72.84;97558.90;1855057;77;25671;-79
2021/06/15 04:53:18;;;;;;;13.05;5.80;;;;;;;9.23;72.84;97554.49;1854935;76;27342;-81
2021/06/15 04:55:47;;;;;;;9.15;4.90;;;;;;;9.33;72.82;97554.95;1848184;77;25829;-80
2021/06/15 04:58:15;;;;;;;10.82;5.08;;;;;;;9.42;72.80;97546.17;1854928;77;25624;-79
2021/06/15 05:00:41;;;;;;;7.85;4.33;;;;;;;9.50;72.76;97541.98;1837414;77;25764;-80
2021/06/15 05:03:10;;;;;;;16.07;5.45;;;;;;;9.59;72.86;97542.62;1852632;77;25389;-81
2021/06/15 05:05:37;;;;;;;12.98;5.45;;;;;;;9.67;73.03;97537.88;1854361;77;27369;-80
2021/06/15 05:08:06;;;;;;;11.03;5.08;;;;;;;9.75;73.14;97537.72;1824088;77;25779;-79
2021/06/15 05:10:37;;;;;;;13.03;5.30;;;;;;;9.83;73.07;97544.78;1848908;77;25771;-81
2021/06/15 05:13:09;;;;;;;9.35;5.37;;;;;;;9.94;73.05;97552.79;1855028;76;26623;-79
2021/06/15 05:15:42;;;;;;;9.88;5.25;;;;;;;10.01;72.93;97547.75;1859841;75;25314;-82
2021/06/15 05:18:06;;;;;;;7.78;4.80;;;;;;;10.11;72.72;97551.39;1800833;78;27385;-80
2021/06/15 05:20:33;;;;;;;10.00;4.87;;;;;;;10.21;72.56;97548.32;1793263;78;25858;-81
2021/06/15 05:23:17;;;;;;;9.63;5.40;;;;;;;10.30;72.40;97544.38;1799516;78;25704;-81
2021/06/15 05:25:44;;;;;;;9.53;5.20;;;;;;;10.38;72.48;97550.43;1787945;78;25743;-80
2021/06/15 05:28:10;;;;;;;15.58;5.40;;;;;;;10.48;72.59;97551.88;1764285;80;25754;-80
2021/06/15 05:30:38;;;;;;;10.78;5.95;;;;;;;10.56;72.84;97551.66;1803384;78;27423;-79
2021/06/15 05:33:05;;;;;;;10.30;5.50;;;;;;;10.65;72.78;97546.36;1794240;78;25700;-81
2021/06/15 05:35:31;;;;;;;16.95;5.62;;;;;;;10.74;72.75;97546.48;1792503;78;25772;-82
2021/06/15 05:37:58;;;;;;;13.75;4.90;;;;;;;10.85;72.81;97544.50;1784087;79;26451;-79
2021/06/15 05:40:25;;;;;;;11.53;5.40;;;;;;;10.95;72.80;97540.02;1869175;76;25909;-82
2021/06/15 05:42:52;;;;;;;8.98;5.53;;;;;;;11.07;72.80;97541.03;1846768;76;27359;-82
2021/06/15 05:45:18;;;;;;;9.00;5.05;;;;;;;11.20;72.82;97541.00;1845772;77;25723;-81
2021/06/15 05:47:45;;;;;;;14.30;4.58;;;;;;;11.33;72.78;97538.27;1845900;76;25918;-81
2021/06/15 05:50:14;;;;;;;8.75;4.75;;;;;;;11.44;72.49;97536.25;1845939;77;25736;-80
2021/06/15 05:52:42;;;;;;;6.95;4.67;;;;;;;11.52;72.15;97532.45;1848229;76;25819;-81
2021/06/15 05:55:11;;;;;;;9.43;4.83;;;;;;;11.63;71.95;97537.71;1787659;79;27372;-81
2021/06/15 05:57:39;;;;;;;9.48;4.60;;;;;;;11.75;71.93;97543.62;1873118;76;25711;-80
2021/06/15 06:00:08;;;;;;;7.78;4.55;;;;;;;11.85;71.89;97534.52;1846037;76;25719;-80
2021/06/15 06:02:35;;;;;;;6.92;4.37;;;;;;;11.98;71.72;97535.48;1845948;77;25852;-81
2021/06/15 06:08:04;;;;;;;9.63;4.75;;;;;;;12.09;71.44;97541.03;1878472;76;25770;-80
2021/06/15 06:10:15;;;;;;;7.35;4.35;;;;;;;12.33;70.90;97540.77;1813934;77;26356;-80
2021/06/15 06:12:42;;;;;;;8.03;4.80;;;;;;;12.46;70.99;97542.03;1845928;77;25657;-82
2021/06/15 06:15:12;;;;;;;8.50;4.62;;;;;;;12.60;70.55;97546.30;1847719;76;25745;-79
2021/06/15 06:17:40;;;;;;;7.75;4.90;;;;;;;12.73;70.51;97547.23;1797292;79;25692;-81
2021/06/15 06:20:11;;;;;;;13.28;4.85;;;;;;;12.88;70.29;97550.45;1872887;76;27342;-81
2021/06/15 06:22:39;;;;;;;12.73;5.10;;;;;;;13.01;70.13;97548.97;1871589;75;25511;-80
2021/06/15 06:25:13;;;;;;;9.85;5.45;;;;;;;13.15;69.86;97548.35;1845697;77;26377;-81
2021/06/15 06:27:37;;;;;;;11.65;5.12;;;;;;;13.28;69.75;97549.57;1845028;76;25830;-82
2021/06/15 06:30:06;;;;;;;7.87;4.72;;;;;;;13.41;69.80;97552.63;1845837;77;25645;-83
2021/06/15 06:32:34;;;;;;;8.30;4.25;;;;;;;13.54;69.47;97549.25;1877722;75;27401;-81
2021/06/15 06:35:03;;;;;;;9.93;4.75;;;;;;;13.69;69.39;97540.73;1863748;76;25732;-81
2021/06/15 06:37:30;;;;;;;11.75;4.53;;;;;;;13.84;69.56;97549.31;1845255;76;25705;-79
2021/06/15 06:39:57;;;;;;;10.35;5.08;;;;;;;14.01;69.49;97551.67;1836568;76;25826;-81
2021/06/15 06:42:23;;;;;;;8.60;4.17;;;;;;;14.15;69.43;97546.89;1831168;76;25724;-82
2021/06/15 06:44:50;;;;;;;13.13;5.05;;;;;;;14.30;69.29;97554.63;1854860;76;27391;-80
2021/06/15 06:47:17;;;;;;;8.93;4.55;;;;;;;14.41;69.01;97558.77;1877085;75;25757;-82
2021/06/15 06:49:43;;;;;;;8.75;4.53;;;;;;;14.53;68.83;97547.93;1801311;78;25724;-82
2021/06/15 06:52:10;;;;;;;6.53;4.37;;;;;;;14.68;68.86;97544.24;1801291;78;25731;-82
2021/06/15 06:54:36;;;;;;;9.73;4.55;;;;;;;14.82;68.72;97544.03;1796777;79;25712;-85
2021/06/15 06:57:04;;;;;;;8.33;4.40;;;;;;;14.98;68.66;97546.03;1784988;80;28243;-85
2021/06/15 06:59:30;;;;;;;9.35;4.33;;;;;;;15.11;68.19;97543.08;1817109;78;25745;-82
2021/06/15 07:01:57;;;;;;;8.10;4.10;;;;;;;15.27;67.85;97541.02;1817242;78;25281;-82
2021/06/15 07:04:23;;;;;;;8.25;4.55;;;;;;;15.40;67.27;97540.77;1817160;78;25684;-82
2021/06/15 07:06:50;;;;;;;8.83;4.75;;;;;;;15.56;67.14;97541.13;1806864;78;25712;-86
2021/06/15 07:09:17;;;;;;;7.92;4.83;;;;;;;15.70;66.64;97535.16;1768139;80;27441;-82
2021/06/15 07:11:43;;;;;;;6.67;3.72;;;;;;;15.83;66.33;97535.42;1814141;78;25724;-80
2021/06/15 07:14:10;;;;;;;7.67;3.87;;;;;;;15.98;66.12;97534.38;1793992;78;25744;-81
2021/06/15 07:16:37;;;;;;;10.15;4.78;;;;;;;16.12;65.56;97539.82;1776864;78;25713;-81
2021/06/15 07:19:03;;;;;;;11.55;4.22;;;;;;;16.26;65.17;97540.89;1819837;78;25280;-81
2021/06/15 07:21:30;;;;;;;9.33;4.05;;;;;;;16.37;64.74;97534.02;1794871;79;28163;-82
2021/06/15 07:23:57;;;;;;;10.53;3.85;;;;;;;16.48;64.44;97535.02;1794559;79;25836;-81
2021/06/15 07:26:23;;;;;;;7.35;4.50;;;;;;;16.59;64.08;97540.94;1794695;79;25852;-84
2021/06/15 07:28:50;;;;;;;9.03;3.40;;;;;;;16.70;64.06;97535.98;1794835;79;25951;-81
2021/06/15 07:31:17;;;;;;;8.03;4.37;;;;;;;16.82;64.04;97532.64;1794884;79;25625;-81
2021/06/15 07:33:43;;;;;;;10.82;3.85;;;;;;;17.00;63.78;97540.29;1803677;78;28135;-84
2021/06/15 07:36:10;;;;;;;7.53;3.75;;;;;;;17.10;63.13;97530.89;1812709;78;25779;-79
2021/06/15 07:38:37;;;;;;;9.08;3.80;;;;;;;17.26;63.49;97540.43;1774968;79;25776;-83
2021/06/15 07:41:04;;;;;;;9.88;3.92;;;;;;;17.39;62.75;97528.30;1759879;80;26458;-92
2021/06/15 07:43:32;;;;;;;8.75;4.00;;;;;;;17.49;62.43;97527.11;1755101;80;26369;-84
2021/06/15 07:45:59;;;;;;;7.87;3.60;;;;;;;17.61;61.97;97526.98;1753913;80;28132;-83
2021/06/15 07:48:25;;;;;;;3.98;2.90;;;;;;;17.77;62.00;97522.02;1753988;81;25716;-83
2021/06/15 07:50:52;;;;;;;4.92;3.47;;;;;;;17.92;61.15;97521.38;1754120;81;25503;-82
2021/06/15 07:53:19;;;;;;;5.03;3.30;;;;;;;18.05;61.00;97520.16;1754115;81;25702;-85
2021/06/15 07:55:45;;;;;;;4.67;2.98;;;;;;;18.20;60.94;97521.16;1754136;81;25817;-84
2021/06/15 07:58:13;;;;;;;6.28;3.00;;;;;;;18.44;61.07;97518.12;1754074;80;27336;-83
2021/06/15 08:00:40;;;;;;;4.53;2.90;;;;;;;18.80;60.77;97516.02;1753948;81;25817;-83
2021/06/15 08:03:07;;;;;;;3.33;2.50;;;;;;;19.21;59.87;97514.38;1753965;80;25810;-82
2021/06/15 08:05:34;;;;;;;5.97;2.67;;;;;;;19.67;59.27;97510.05;1753888;80;26452;-86
2021/06/15 08:08:01;;;;;;;7.90;3.20;;;;;;;20.18;58.13;97514.31;1753940;81;25778;-84
2021/06/15 08:10:28;;;;;;;5.33;2.67;;;;;;;20.67;57.37;97517.98;1753874;81;27370;-84
2021/06/15 08:12:55;;;;;;;3.70;2.00;;;;;;;21.18;56.74;97515.55;1753734;81;26292;-85
2021/06/15 08:15:22;;;;;;;5.65;2.25;;;;;;;21.75;56.04;97511.55;1753915;80;25774;-82
2021/06/15 08:17:53;;;;;;;3.37;2.05;;;;;;;22.28;54.88;97505.84;1768152;81;25785;-85
2021/06/15 08:20:20;;;;;;;3.08;2.25;;;;;;;22.73;53.88;97496.17;1753965;80;26354;-84
2021/06/15 08:22:46;;;;;;;2.60;1.87;;;;;;;22.88;51.96;97502.42;1753699;80;27415;-84
2021/06/15 08:25:14;;;;;;;4.05;2.05;;;;;;;23.18;52.40;97494.45;1753810;81;25246;-84
2021/06/15 08:27:40;;;;;;;4.45;2.00;;;;;;;23.60;51.69;97497.06;1754028;80;25751;-82
2021/06/15 08:30:09;;;;;;;5.00;2.17;;;;;;;24.09;51.45;97490.40;1753945;80;25841;-83
2021/06/15 08:32:37;;;;;;;4.37;2.00;;;;;;;24.56;50.98;97494.44;1754083;80;25795;-85
2021/06/15 08:35:06;;;;;;;4.35;2.08;;;;;;;25.00;49.78;97494.02;1753639;80;27400;-82
2021/06/15 08:37:35;;;;;;;3.40;2.12;;;;;;;25.17;48.29;97482.41;1756190;80;25824;-87
2021/06/15 08:40:03;;;;;;;3.60;2.22;;;;;;;25.42;47.49;97491.63;1787628;79;25955;-84
2021/06/15 08:42:29;;;;;;;7.33;2.30;;;;;;;25.76;46.69;97475.23;1754998;80;26533;-84
2021/06/15 08:44:57;;;;;;;3.40;2.15;;;;;;;26.11;46.27;97477.81;1787373;79;25671;-83
2021/06/15 08:47:23;;;;;;;5.17;2.17;;;;;;;26.28;46.01;97474.44;1754899;80;27370;-86
2021/06/15 08:49:50;;;;;;;5.33;1.80;;;;;;;26.67;45.36;97477.41;1787466;79;25793;-86
2021/06/15 08:52:17;;;;;;;1.90;1.60;;;;;;;26.97;43.98;97479.19;1754939;80;25759;-85
2021/06/15 08:54:45;;;;;;;4.00;2.00;;;;;;;27.18;43.54;97480.30;1787558;79;25767;-83
2021/06/15 08:57:15;;;;;;;3.45;1.80;;;;;;;27.40;42.44;97478.89;1755028;80;25651;-83
2021/06/15 08:59:42;;;;;;;3.62;1.90;;;;;;;27.60;42.13;97471.43;1787507;79;28322;-85
2021/06/15 09:02:09;;;;;;;5.75;1.90;;;;;;;27.98;42.13;97477.84;1755017;80;25678;-85
2021/06/15 09:04:36;;;;;;;3.33;2.00;;;;;;;28.30;41.88;97467.73;1787652;79;25670;-86
2021/06/15 09:07:04;;;;;;;2.35;1.80;;;;;;;28.72;41.67;97478.38;1754909;80;25700;-85
2021/06/15 09:09:48;;;;;;;4.10;2.00;;;;;;;29.01;40.31;97477.97;1787434;79;25788;-86
2021/06/15 09:12:17;;;;;;;3.50;2.02;;;;;;;29.28;39.29;97477.34;1755004;80;28095;-87
2021/06/15 09:14:54;;;;;;;4.22;1.70;;;;;;;29.44;38.58;97477.10;1787271;79;25768;-86
2021/06/15 09:17:34;;;;;;;3.37;1.70;;;;;;;29.65;38.69;97473.83;1754940;80;25865;-83
2021/06/15 09:20:15;;;;;;;3.95;1.67;;;;;;;29.83;37.61;97476.55;1787430;79;25763;-89
2021/06/15 09:22:42;;;;;;;1.80;1.67;;;;;;;29.93;37.49;97477.55;1752426;80;25818;-83
2021/06/15 09:25:15;;;;;;;3.50;1.80;;;;;;;29.87;36.16;97477.48;1787528;79;27966;-86
2021/06/15 09:27:42;;;;;;;5.30;2.10;;;;;;;29.87;36.03;97476.09;1754807;80;25797;-83
2021/06/15 09:30:14;;;;;;;2.20;1.82;;;;;;;29.74;35.67;97480.73;1781999;79;25789;-87
2021/06/15 09:32:44;;;;;;;4.25;1.75;;;;;;;29.74;35.33;97475.98;1754591;80;25758;-84
2021/06/15 09:35:26;;;;;;;3.65;1.55;;;;;;;29.86;35.45;97471.11;1787148;79;25698;-84
2021/06/15 09:37:56;;;;;;;2.90;1.80;;;;;;;29.94;34.61;97461.92;1765041;78;27549;-87
2021/06/15 09:40:33;;;;;;;3.55;2.02;;;;;;;29.97;34.50;97454.30;1801073;78;25790;-90
2021/06/15 09:43:10;;;;;;;6.05;2.00;;;;;;;29.97;33.59;97448.73;1807834;79;25696;-84
2021/06/15 09:45:47;;;;;;;4.55;1.90;;;;;;;29.68;33.96;97452.30;1784962;80;26329;-89
2021/06/15 09:48:31;;;;;;;4.10;1.90;;;;;;;29.72;34.07;97451.04;1804897;78;26325;-86
2021/06/15 09:51:11;;;;;;;5.08;2.12;;;;;;;29.61;33.76;97449.20;1772945;80;27174;-88
2021/06/15 09:53:44;;;;;;;2.50;1.92;;;;;;;29.36;33.37;97453.69;1792779;78;25786;-89
2021/06/15 09:56:14;;;;;;;4.87;2.00;;;;;;;29.33;34.23;97450.77;1793290;79;25693;-84
2021/06/15 09:58:50;;;;;;;3.65;1.85;;;;;;;29.41;33.83;97449.95;1801165;79;25809;-86
2021/06/15 10:01:40;;;;;;;6.10;1.90;;;;;;;29.19;33.84;97453.75;1797497;79;25741;-88
2021/06/15 10:04:17;;;;;;;4.60;1.90;;;;;;;29.05;33.58;97445.36;1806005;79;28208;-89
2021/06/15 10:06:48;;;;;;;2.25;1.75;;;;;;;28.59;33.30;97442.69;1785495;78;25998;-84
2021/06/15 10:09:34;;;;;;;3.25;1.90;;;;;;;28.73;34.52;97443.34;1762716;78;36361;-88
2021/06/15 10:12:07;;;;;;;3.00;1.85;;;;;;;28.86;33.86;97444.34;1791394;79;26586;-88
2021/06/15 10:14:39;;;;;;;4.90;2.00;;;;;;;28.90;33.62;97443.34;1801120;78;25747;-84
2021/06/15 10:17:06;;;;;;;;;;;;;;;28.89;33.59;97438.92;1796527;78;27349;-89
2021/06/15 10:19:33;;;;;;;2.98;1.92;;;;;;;28.91;32.78;97438.59;1817214;78;25711;-85
2021/06/15 10:22:00;;;;;;;4.30;2.15;;;;;;;29.05;33.56;97434.24;1817132;78;25733;-89
2021/06/15 10:24:27;;;;;;;2.42;1.62;;;;;;;28.97;34.31;97427.56;1812246;78;26618;-90
2021/06/15 10:26:54;;;;;;;4.67;2.30;;;;;;;28.93;34.26;97430.75;1796619;78;25649;-85
2021/06/15 10:29:21;;;;;;;2.87;1.90;;;;;;;28.81;34.22;97432.81;1779640;78;27434;-88
2021/06/15 10:31:52;;;;;;;5.50;2.35;;;;;;;28.74;34.31;97424.11;1782264;79;25800;-84
2021/06/15 10:34:57;;;;;;;3.55;2.02;;;;;;;28.82;34.47;97435.02;1808368;78;25712;-91
2021/06/15 10:37:36;;;;;;;4.55;2.10;;;;;;;28.73;34.20;97396.70;1783324;80;25819;-90
2021/06/15 10:40:20;;;;;;;3.00;2.20;;;;;;;28.73;34.20;97396.70;1814230;78;26364;-84
2021/06/15 10:43:15;;;;;;;3.35;1.80;;;;;;;28.99;33.78;97410.78;1814738;78;27390;-88
2021/06/15 10:45:44;;;;;;;3.92;1.77;;;;;;;28.99;34.17;97401.63;1784758;80;25739;-90
2021/06/15 10:48:23;;;;;;;5.08;2.27;;;;;;;28.99;34.20;97406.62;1787182;78;25704;-89
2021/06/15 10:50:53;;;;;;;1.98;1.60;;;;;;;29.06;34.26;97403.34;1800359;78;25742;-88
2021/06/15 10:53:40;;;;;;;4.40;2.00;;;;;;;29.18;33.96;97397.09;1817333;78;25758;-91
2021/06/15 10:56:11;;;;;;;4.45;1.98;;;;;;;29.35;33.10;97395.63;1794298;78;27402;-90
2021/06/15 10:58:44;;;;;;;4.85;1.65;;;;;;;29.41;32.83;97398.52;1802370;78;25882;-83
2021/06/15 11:01:21;;;;;;;4.00;2.25;;;;;;;29.36;32.81;97394.48;1771845;80;26282;-89
2021/06/15 11:04:01;;;;;;;2.52;1.87;;;;;;;29.40;32.93;97400.23;1800768;78;25751;-91
2021/06/15 11:06:33;;;;;;;2.25;1.95;;;;;;;29.42;32.33;97393.20;1807071;78;25738;-90
2021/06/15 11:09:19;;;;;;;4.17;1.70;;;;;;;29.12;32.57;97394.24;1800409;78;28018;-90
2021/06/15 11:12:04;;;;;;;3.72;1.70;;;;;;;29.15;32.86;97388.03;1777838;80;25499;-90
2021/06/15 11:14:31;;;;;;;3.17;1.95;;;;;;;29.12;32.46;97394.24;1778067;78;25470;-87
2021/06/15 11:17:00;;;;;;;3.22;2.25;;;;;;;29.23;32.30;97378.83;1799716;78;25744;-89
2021/06/15 11:19:35;;;;;;;2.40;1.82;;;;;;;29.31;32.40;97380.20;1774397;78;25670;-88
2021/06/15 11:22:14;;;;;;;5.25;2.02;;;;;;;29.33;32.28;97369.58;1766539;79;27368;-90
2021/06/15 11:24:51;;;;;;;3.70;1.90;;;;;;;29.23;32.19;97373.27;1784745;80;25807;-86
2021/06/15 11:27:26;;;;;;;4.53;2.00;;;;;;;29.14;32.30;97371.11;1816784;78;26327;-89
2021/06/15 11:29:56;;;;;;;3.95;1.95;;;;;;;28.94;32.45;97366.52;1817102;78;26465;-86
2021/06/15 11:32:36;;;;;;;3.52;1.72;;;;;;;28.80;31.91;97361.73;1799288;78;25772;-85
2021/06/15 11:35:08;;;;;;;1.67;1.50;;;;;;;28.76;32.34;97362.68;1765105;80;27355;-93
2021/06/15 11:37:46;;;;;;;2.20;1.70;;;;;;;28.74;32.31;97360.23;1799898;78;25765;-92
2021/06/15 11:40:36;;;;;;;4.37;2.02;;;;;;;28.69;32.13;97359.03;1777210;79;25747;-86
2021/06/15 11:43:12;;;;;;;4.37;1.80;;;;;;;28.65;32.32;97363.60;1845811;77;25759;-89
2021/06/15 11:45:50;;;;;;;4.10;1.70;;;;;;;28.66;32.54;97356.91;1845418;77;25657;-91
2021/06/15 11:48:37;;;;;;;2.45;1.77;;;;;;;28.66;31.85;97358.30;1847452;76;27462;-84
2021/06/15 11:51:09;;;;;;;2.70;1.87;;;;;;;28.68;32.15;97358.78;1845040;77;25698;-94
2021/06/15 11:53:40;;;;;;;2.30;1.92;;;;;;;28.60;31.70;97366.57;1819501;77;25579;-88
2021/06/15 11:56:11;;;;;;;4.10;1.98;;;;;;;28.58;31.56;97361.91;1824236;76;25775;-89
2021/06/15 11:58:43;;;;;;;3.97;1.70;;;;;;;28.62;31.48;97353.96;1858804;76;25723;-90